Terminal Aerodrome Forecast
Issued by NWS Jackson, MS

Home | Current Version | Previous Version | Text Only | Print | Product List | Glossary On
Versions: 1 2 3 4 5 6 7 8 9 10 11 12 13 14 15 16
000
FTUS44 KMEG 111700
TAFTUP
TAF
KTUP 111720Z 1118/1218 36004KT P6SM SCT050 BKN100
     FM120100 00000KT P6SM SCT250
      TEMPO 1208/1212 5SM BR
     FM121400 13003KT P6SM SCT250=

USA.gov is the U.S. government's official web portal to all federal, state and local government web resources and services.